Time;durP1;ratioP1;P1;durP2;ratioP2;P2;SDS_P1;SDS_P2;PMS_P1;PMS_P2;Temp;Humidity;BMP_temperature;BMP_pressure;BME280_temperature;BME280_humidity;BME280_pressure;Samples;Min_cycle;Max_cycle;Signal;HPM_P1;HPM_P2
2023/12/27 00:01:48;;;;;;;4.33;3.93;;;7.60;99.90;;;;;;504132;236;27988;-74
2023/12/27 00:03:49;;;;;;;3.67;3.30;;;7.60;99.90;;;;;;486766;244;27940;-72
2023/12/27 00:05:50;;;;;;;8.10;4.10;;;7.60;99.90;;;;;;504164;236;27993;-73
2023/12/27 00:07:52;;;;;;;4.73;3.60;;;7.60;99.90;;;;;;486826;244;28291;-72
2023/12/27 00:09:53;;;;;;;5.63;4.97;;;7.60;99.90;;;;;;504152;236;27933;-72
2023/12/27 00:11:54;;;;;;;7.73;4.53;;;7.60;99.90;;;;;;504196;236;27953;-73
2023/12/27 00:13:55;;;;;;;5.80;4.70;;;7.60;99.90;;;;;;486766;244;27971;-72
2023/12/27 00:15:57;;;;;;;7.60;5.20;;;7.60;99.90;;;;;;504143;236;27975;-72
2023/12/27 00:17:58;;;;;;;5.50;3.70;;;7.60;99.90;;;;;;486572;244;28051;-77
2023/12/27 00:19:59;;;;;;;5.80;5.10;;;7.60;99.90;;;;;;504039;236;27781;-72
2023/12/27 00:22:00;;;;;;;9.20;4.53;;;7.60;99.90;;;;;;486725;244;28169;-72
2023/12/27 00:24:02;;;;;;;4.13;3.40;;;7.60;99.90;;;;;;504050;236;27635;-72
2023/12/27 00:26:03;;;;;;;9.82;5.40;;;7.60;99.90;;;;;;486860;244;28019;-72
2023/12/27 00:28:04;;;;;;;6.10;4.97;;;7.60;99.90;;;;;;504217;236;27388;-72
2023/12/27 00:30:06;;;;;;;4.40;4.00;;;7.60;99.90;;;;;;486818;244;27954;-72
2023/12/27 00:32:11;;;;;;;7.97;4.77;;;7.60;99.90;;;;;;504160;236;27518;-72
2023/12/27 00:34:08;;;;;;;9.87;5.60;;;7.60;99.90;;;;;;483354;246;27824;-72
2023/12/27 00:36:09;;;;;;;6.67;5.00;;;7.60;99.90;;;;;;504185;235;27920;-72
2023/12/27 00:38:10;;;;;;;7.97;5.10;;;7.60;99.90;;;;;;486836;244;28994;-74
2023/12/27 00:40:12;;;;;;;5.50;4.50;;;7.60;99.90;;;;;;504188;236;28438;-72
2023/12/27 00:42:13;;;;;;;5.30;4.80;;;7.60;99.90;;;;;;486706;244;28525;-73
2023/12/27 00:44:14;;;;;;;8.70;5.13;;;7.60;99.90;;;;;;503540;236;28163;-73
2023/12/27 00:46:15;;;;;;;7.23;5.67;;;7.60;99.90;;;;;;486791;244;28583;-72
2023/12/27 00:48:17;;;;;;;14.10;6.20;;;7.50;99.90;;;;;;504102;236;28005;-73
2023/12/27 00:50:18;;;;;;;5.60;4.40;;;7.50;99.90;;;;;;486801;244;27824;-72
2023/12/27 00:52:19;;;;;;;9.10;4.63;;;7.40;99.90;;;;;;504159;236;27952;-72
2023/12/27 00:54:20;;;;;;;10.87;5.17;;;7.50;99.90;;;;;;486812;244;27909;-73
2023/12/27 00:56:22;;;;;;;11.10;5.03;;;7.50;99.90;;;;;;504152;236;27963;-72
2023/12/27 00:58:23;;;;;;;7.10;4.60;;;7.50;99.90;;;;;;486779;244;28029;-73
2023/12/27 01:00:24;;;;;;;4.90;4.30;;;7.50;99.90;;;;;;504161;236;27968;-72
2023/12/27 01:02:25;;;;;;;16.73;5.00;;;7.50;99.90;;;;;;486808;244;27947;-72
2023/12/27 01:04:27;;;;;;;9.87;5.17;;;7.50;99.90;;;;;;504144;236;27548;-74
2023/12/27 01:06:28;;;;;;;7.87;4.23;;;7.50;99.90;;;;;;486837;244;27613;-72
2023/12/27 01:08:29;;;;;;;7.60;5.23;;;7.50;99.90;;;;;;504162;236;27936;-73
2023/12/27 01:10:30;;;;;;;5.53;4.47;;;7.50;99.90;;;;;;486793;244;28501;-74
2023/12/27 01:12:32;;;;;;;5.53;4.33;;;7.50;99.90;;;;;;504098;236;28324;-72
2023/12/27 01:14:33;;;;;;;6.70;3.97;;;7.50;99.90;;;;;;486770;244;28439;-73
2023/12/27 01:16:34;;;;;;;6.00;4.00;;;7.50;99.90;;;;;;504099;236;28289;-72
2023/12/27 01:18:35;;;;;;;9.13;4.40;;;7.50;99.90;;;;;;486787;244;28487;-72
2023/12/27 01:20:37;;;;;;;10.97;5.50;;;7.50;99.90;;;;;;504153;236;28352;-75
2023/12/27 01:22:38;;;;;;;7.30;4.20;;;7.50;99.90;;;;;;486829;244;28080;-72
2023/12/27 01:24:39;;;;;;;6.60;3.93;;;7.50;99.90;;;;;;504101;236;27892;-73
2023/12/27 01:26:40;;;;;;;5.63;3.80;;;7.50;99.90;;;;;;486820;244;28097;-73
2023/12/27 01:28:42;;;;;;;4.87;3.60;;;7.50;99.90;;;;;;504126;236;27896;-72
2023/12/27 01:30:43;;;;;;;5.93;4.17;;;7.60;99.90;;;;;;486783;244;27844;-74
2023/12/27 01:32:44;;;;;;;10.20;4.43;;;7.60;99.90;;;;;;504123;236;27910;-72
2023/12/27 01:34:45;;;;;;;5.13;3.57;;;7.60;99.90;;;;;;486756;244;27898;-72
2023/12/27 01:36:47;;;;;;;3.97;3.57;;;7.60;99.90;;;;;;504140;236;27839;-72
2023/12/27 01:38:48;;;;;;;7.27;3.40;;;7.50;99.90;;;;;;486833;244;27998;-72
2023/12/27 01:40:49;;;;;;;5.10;3.70;;;7.50;99.90;;;;;;504145;236;27962;-73
2023/12/27 01:42:50;;;;;;;6.13;3.93;;;7.50;99.90;;;;;;486814;244;28039;-72
2023/12/27 01:44:52;;;;;;;10.23;3.90;;;7.50;99.90;;;;;;503945;236;28105;-73
2023/12/27 01:46:53;;;;;;;7.80;4.13;;;7.50;99.90;;;;;;504137;236;28839;-73
2023/12/27 01:48:54;;;;;;;6.93;4.20;;;7.50;99.90;;;;;;486814;244;28292;-72
2023/12/27 01:50:57;;;;;;;11.20;4.60;;;7.50;99.90;;;;;;504106;236;28637;-72
2023/12/27 01:52:57;;;;;;;4.27;3.87;;;7.50;99.90;;;;;;486706;244;28548;-72
2023/12/27 01:54:58;;;;;;;6.73;4.20;;;7.50;99.90;;;;;;503584;236;28460;-72
2023/12/27 01:56:59;;;;;;;8.40;4.20;;;7.50;99.90;;;;;;486821;244;28085;-74
2023/12/27 01:59:00;;;;;;;7.70;4.13;;;7.50;99.90;;;;;;504168;236;27491;-72
2023/12/27 02:01:02;;;;;;;8.70;3.67;;;7.50;99.90;;;;;;486774;244;27751;-73
2023/12/27 02:03:03;;;;;;;8.40;3.73;;;7.50;99.90;;;;;;504101;235;27821;-75
2023/12/27 02:05:04;;;;;;;9.90;3.70;;;7.50;99.90;;;;;;486800;244;28157;-72
2023/12/27 02:07:05;;;;;;;5.80;3.77;;;7.50;99.90;;;;;;504169;236;27908;-74
2023/12/27 02:09:07;;;;;;;8.30;4.73;;;7.50;99.90;;;;;;486625;244;27966;-72
2023/12/27 02:11:08;;;;;;;4.30;3.40;;;7.40;99.90;;;;;;504109;236;27617;-72
2023/12/27 02:13:09;;;;;;;10.53;4.03;;;7.50;99.90;;;;;;486725;244;28072;-72
2023/12/27 02:15:10;;;;;;;6.10;3.77;;;7.40;99.90;;;;;;504146;236;27780;-72
2023/12/27 02:17:12;;;;;;;10.27;4.40;;;7.50;99.90;;;;;;486794;244;28032;-73
2023/12/27 02:19:13;;;;;;;8.40;4.10;;;7.40;99.90;;;;;;504110;236;28019;-72
2023/12/27 02:21:14;;;;;;;6.13;4.00;;;7.40;99.90;;;;;;486757;244;28100;-72
2023/12/27 02:23:15;;;;;;;4.13;3.40;;;7.40;99.90;;;;;;504164;236;28335;-75
2023/12/27 02:25:17;;;;;;;8.20;4.10;;;7.40;99.90;;;;;;504219;236;28004;-72
2023/12/27 02:27:18;;;;;;;4.77;3.30;;;7.40;99.90;;;;;;486830;244;28443;-72
2023/12/27 02:29:19;;;;;;;5.70;3.43;;;7.40;99.90;;;;;;504112;236;28246;-72
2023/12/27 02:31:20;;;;;;;5.27;4.20;;;7.50;99.90;;;;;;486770;244;28256;-72
2023/12/27 02:33:22;;;;;;;4.50;3.43;;;7.50;99.90;;;;;;504111;236;27880;-75
2023/12/27 02:35:23;;;;;;;6.13;3.40;;;7.40;99.90;;;;;;486838;244;27991;-72
2023/12/27 02:37:24;;;;;;;5.20;3.40;;;7.50;99.90;;;;;;504160;236;27738;-73
2023/12/27 02:39:25;;;;;;;14.10;4.43;;;7.40;99.90;;;;;;486836;244;28239;-72
2023/12/27 02:41:27;;;;;;;3.60;3.10;;;7.40;99.90;;;;;;504163;236;27810;-72
2023/12/27 02:43:28;;;;;;;6.47;4.10;;;7.40;99.90;;;;;;486817;244;27924;-75
2023/12/27 02:45:29;;;;;;;3.70;3.20;;;7.40;99.90;;;;;;504174;236;27672;-72
2023/12/27 02:47:30;;;;;;;4.93;3.33;;;7.40;99.90;;;;;;486801;244;28102;-73
2023/12/27 02:49:32;;;;;;;5.03;3.95;;;7.40;99.90;;;;;;504104;236;28477;-72
2023/12/27 02:51:33;;;;;;;4.10;3.40;;;7.40;99.90;;;;;;486865;244;27485;-72
2023/12/27 02:53:34;;;;;;;4.60;3.40;;;7.50;99.90;;;;;;504149;236;27693;-73
2023/12/27 02:55:35;;;;;;;6.40;4.53;;;7.40;99.90;;;;;;486852;244;27696;-72
2023/12/27 02:57:37;;;;;;;5.70;3.73;;;7.40;99.90;;;;;;504159;236;28355;-72
2023/12/27 02:59:38;;;;;;;7.77;4.13;;;7.40;99.90;;;;;;486801;244;28739;-74
2023/12/27 03:01:39;;;;;;;7.00;6.30;;;7.40;99.90;;;;;;504162;236;28350;-72
2023/12/27 03:03:40;;;;;;;8.10;5.70;;;7.40;99.90;;;;;;486778;244;28503;-72
2023/12/27 03:05:42;;;;;;;5.03;3.97;;;7.40;99.90;;;;;;504106;236;29001;-76
2023/12/27 03:07:43;;;;;;;8.40;4.33;;;7.40;99.90;;;;;;486424;244;28711;-73
2023/12/27 03:09:44;;;;;;;6.40;4.37;;;7.40;99.90;;;;;;504185;236;27848;-74
2023/12/27 03:11:45;;;;;;;5.13;3.80;;;7.40;99.90;;;;;;486801;244;28076;-73
2023/12/27 03:13:47;;;;;;;5.40;4.03;;;7.40;99.90;;;;;;504082;236;27599;-72
2023/12/27 03:15:48;;;;;;;4.30;3.50;;;7.40;99.90;;;;;;486793;244;27960;-72
2023/12/27 03:17:49;;;;;;;5.63;4.17;;;7.40;99.90;;;;;;504175;236;27834;-72
2023/12/27 03:19:50;;;;;;;5.80;4.33;;;7.40;99.90;;;;;;486825;244;28980;-73
2023/12/27 03:21:52;;;;;;;9.30;4.63;;;7.40;99.90;;;;;;504123;236;28791;-72
2023/12/27 03:23:53;;;;;;;7.70;4.40;;;7.40;99.90;;;;;;486764;244;28104;-72
2023/12/27 03:25:54;;;;;;;8.30;4.33;;;7.40;99.90;;;;;;504145;236;28240;-72
2023/12/27 03:27:55;;;;;;;8.13;4.60;;;7.40;99.90;;;;;;486835;244;28085;-72
2023/12/27 03:29:57;;;;;;;8.20;5.13;;;7.40;99.90;;;;;;504156;236;27623;-73
2023/12/27 03:31:58;;;;;;;6.13;4.60;;;7.40;99.90;;;;;;486781;244;28048;-72
2023/12/27 03:33:59;;;;;;;8.97;5.03;;;7.40;99.90;;;;;;504053;236;28154;-72
2023/12/27 03:36:01;;;;;;;6.53;4.53;;;7.40;99.90;;;;;;486811;244;28309;-75
2023/12/27 03:38:02;;;;;;;8.20;5.10;;;7.40;99.90;;;;;;504155;236;28557;-72
2023/12/27 03:40:03;;;;;;;4.60;4.20;;;7.40;99.90;;;;;;486791;244;28613;-73
2023/12/27 03:42:04;;;;;;;7.70;4.40;;;7.40;99.90;;;;;;504118;236;28128;-72
2023/12/27 03:44:05;;;;;;;6.60;3.80;;;7.40;99.90;;;;;;486736;243;28481;-72
2023/12/27 03:46:07;;;;;;;6.70;4.47;;;7.40;99.90;;;;;;504052;236;27961;-74
2023/12/27 03:48:08;;;;;;;5.93;4.43;;;7.40;99.90;;;;;;486822;244;28053;-72
2023/12/27 03:50:09;;;;;;;5.07;3.83;;;7.40;99.90;;;;;;495764;236;28019;-73
2023/12/27 03:52:10;;;;;;;9.43;4.60;;;7.40;99.90;;;;;;490455;242;27939;-72
2023/12/27 03:54:12;;;;;;;4.90;3.83;;;7.40;99.90;;;;;;492942;241;27806;-72
2023/12/27 03:56:13;;;;;;;7.57;4.23;;;7.40;99.90;;;;;;492949;240;28076;-74
2023/12/27 03:58:14;;;;;;;3.97;3.63;;;7.40;99.90;;;;;;490409;242;28509;-72
2023/12/27 04:00:15;;;;;;;8.00;5.17;;;7.40;99.90;;;;;;492908;241;27882;-72
2023/12/27 04:02:17;;;;;;;11.00;5.23;;;7.40;99.90;;;;;;490465;242;27966;-72
2023/12/27 04:04:18;;;;;;;5.40;4.90;;;7.40;99.90;;;;;;492962;241;27848;-72
2023/12/27 04:06:19;;;;;;;4.70;3.80;;;7.40;99.90;;;;;;490355;242;28043;-73
2023/12/27 04:08:20;;;;;;;4.23;3.60;;;7.40;99.90;;;;;;492974;241;27859;-72
2023/12/27 04:10:22;;;;;;;6.70;3.90;;;7.40;99.90;;;;;;492945;240;27971;-71
2023/12/27 04:12:23;;;;;;;4.23;3.83;;;7.40;99.90;;;;;;490473;242;28700;-75
2023/12/27 04:14:24;;;;;;;10.97;5.43;;;7.40;99.90;;;;;;492962;240;28583;-72
2023/12/27 04:16:25;;;;;;;6.32;5.05;;;7.40;99.90;;;;;;490484;242;28412;-73
2023/12/27 04:18:27;;;;;;;5.53;5.00;;;7.40;99.90;;;;;;492775;241;27364;-72
2023/12/27 04:20:28;;;;;;;5.37;4.80;;;7.40;99.90;;;;;;492933;240;28010;-72
2023/12/27 04:22:29;;;;;;;11.73;5.30;;;7.40;99.90;;;;;;490117;242;27531;-75
2023/12/27 04:24:30;;;;;;;7.13;5.03;;;7.40;99.90;;;;;;492927;241;28037;-72
2023/12/27 04:26:32;;;;;;;6.37;4.43;;;7.40;99.90;;;;;;490482;242;27920;-73
2023/12/27 04:28:33;;;;;;;4.40;4.00;;;7.40;99.90;;;;;;492800;241;27992;-72
2023/12/27 04:30:34;;;;;;;6.20;4.80;;;7.40;99.90;;;;;;490480;242;27835;-72
2023/12/27 04:32:35;;;;;;;6.63;4.40;;;7.40;99.90;;;;;;492980;241;28108;-73
2023/12/27 04:34:37;;;;;;;8.57;3.80;;;7.40;99.90;;;;;;490418;242;28123;-72
2023/12/27 04:36:38;;;;;;;7.50;4.77;;;7.40;99.90;;;;;;492953;241;27889;-72
2023/12/27 04:38:39;;;;;;;5.97;4.20;;;7.40;99.90;;;;;;492956;240;27933;-72
2023/12/27 04:40:40;;;;;;;7.27;4.20;;;7.40;99.90;;;;;;490490;242;27938;-72
2023/12/27 04:42:42;;;;;;;6.30;4.33;;;7.40;99.90;;;;;;492956;241;27891;-73
2023/12/27 04:44:43;;;;;;;5.43;3.83;;;7.40;99.90;;;;;;490459;242;28604;-72
2023/12/27 04:46:44;;;;;;;5.70;3.97;;;7.40;99.90;;;;;;492942;241;28649;-72
2023/12/27 04:48:45;;;;;;;6.33;3.73;;;7.40;99.90;;;;;;493008;240;28176;-73
2023/12/27 04:50:47;;;;;;;4.60;3.33;;;7.40;99.90;;;;;;490510;242;28148;-72
2023/12/27 04:52:48;;;;;;;6.03;3.70;;;7.40;99.90;;;;;;492985;241;28447;-73
2023/12/27 04:54:49;;;;;;;4.70;3.40;;;7.40;99.90;;;;;;490431;242;28899;-72
2023/12/27 04:56:54;;;;;;;5.40;3.93;;;7.40;99.90;;;;;;492919;241;27935;-72
2023/12/27 04:58:52;;;;;;;3.33;2.90;;;7.40;99.90;;;;;;490309;242;27998;-75
2023/12/27 05:00:53;;;;;;;3.60;3.27;;;7.40;99.90;;;;;;492986;241;27519;-72
2023/12/27 05:02:54;;;;;;;3.43;3.03;;;7.40;99.90;;;;;;490533;242;27971;-72
2023/12/27 05:04:55;;;;;;;5.00;3.27;;;7.30;99.90;;;;;;492951;241;27828;-72
2023/12/27 05:06:57;;;;;;;7.07;3.63;;;7.40;99.90;;;;;;490505;242;27911;-73
2023/12/27 05:08:59;;;;;;;3.10;2.80;;;7.30;99.90;;;;;;492992;241;27683;-75
2023/12/27 05:10:59;;;;;;;4.00;3.50;;;7.30;99.90;;;;;;492936;241;27941;-72
2023/12/27 05:13:00;;;;;;;3.53;3.13;;;7.30;99.90;;;;;;492985;240;27829;-73
2023/12/27 05:15:02;;;;;;;3.40;2.90;;;7.30;99.90;;;;;;490477;242;28063;-72
2023/12/27 05:17:04;;;;;;;3.83;2.83;;;7.30;99.90;;;;;;492969;241;28042;-72
2023/12/27 05:19:04;;;;;;;7.20;3.50;;;7.30;99.90;;;;;;490287;242;27873;-73
2023/12/27 05:21:05;;;;;;;5.10;3.40;;;7.30;99.90;;;;;;492923;241;27963;-72
2023/12/27 05:23:07;;;;;;;5.07;3.67;;;7.30;99.90;;;;;;490415;242;28482;-72
2023/12/27 05:25:08;;;;;;;3.70;3.40;;;7.30;99.90;;;;;;492992;241;28301;-72
2023/12/27 05:27:09;;;;;;;7.83;3.53;;;7.30;99.90;;;;;;492949;241;28497;-72
2023/12/27 05:29:10;;;;;;;6.77;3.80;;;7.30;99.90;;;;;;492973;240;28416;-73
2023/12/27 05:31:12;;;;;;;6.57;3.90;;;7.30;99.90;;;;;;490494;242;27913;-73
2023/12/27 05:33:13;;;;;;;11.13;4.60;;;7.30;99.90;;;;;;492897;241;28288;-72
2023/12/27 05:35:14;;;;;;;6.90;4.13;;;7.30;99.90;;;;;;490520;242;27976;-74
2023/12/27 05:37:15;;;;;;;8.20;4.50;;;7.30;99.90;;;;;;492595;241;27794;-72
2023/12/27 05:39:17;;;;;;;4.80;3.60;;;7.40;99.90;;;;;;492986;240;27760;-73
2023/12/27 05:41:24;;;;;;;5.60;4.60;;;7.40;99.90;;;;;;490428;242;28790;-72
2023/12/27 05:43:19;;;;;;;8.90;4.40;;;7.30;99.90;;;;;;492447;241;28763;-72
2023/12/27 05:45:20;;;;;;;4.80;4.30;;;7.30;99.90;;;;;;492997;240;27976;-74
2023/12/27 05:47:22;;;;;;;7.70;4.20;;;7.40;99.90;;;;;;490475;242;28494;-72
2023/12/27 05:49:23;;;;;;;6.83;3.80;;;7.30;99.90;;;;;;492989;241;28156;-73
2023/12/27 05:51:24;;;;;;;6.07;3.70;;;7.40;99.90;;;;;;492970;240;27738;-72
2023/12/27 05:53:25;;;;;;;5.60;4.37;;;7.30;99.90;;;;;;490479;242;28039;-72
2023/12/27 05:55:27;;;;;;;6.00;3.87;;;7.30;99.90;;;;;;492990;241;27913;-74
2023/12/27 05:57:28;;;;;;;4.83;4.23;;;7.30;99.90;;;;;;490487;242;28059;-72
2023/12/27 05:59:29;;;;;;;7.47;3.77;;;7.30;99.90;;;;;;492974;241;29238;-72
2023/12/27 06:01:30;;;;;;;6.57;4.67;;;7.30;99.90;;;;;;490460;242;30102;-72
2023/12/27 06:03:32;;;;;;;6.10;4.40;;;7.30;99.90;;;;;;492909;241;28208;-73
2023/12/27 06:05:33;;;;;;;5.07;4.13;;;7.30;99.90;;;;;;490521;242;28486;-73
2023/12/27 06:07:34;;;;;;;5.70;3.83;;;7.30;99.90;;;;;;492280;241;27922;-72
2023/12/27 06:09:35;;;;;;;6.97;4.27;;;7.40;99.90;;;;;;486200;244;27940;-73
2023/12/27 06:11:37;;;;;;;8.23;4.63;;;7.30;99.90;;;;;;490675;240;28520;-72
2023/12/27 06:13:38;;;;;;;7.10;4.43;;;7.30;99.90;;;;;;486203;244;27563;-72
2023/12/27 06:15:39;;;;;;;5.40;4.60;;;7.30;99.90;;;;;;490705;242;27857;-73
2023/12/27 06:17:40;;;;;;;5.43;3.83;;;7.30;99.90;;;;;;486259;242;27766;-72
2023/12/27 06:19:42;;;;;;;6.50;4.20;;;7.30;99.90;;;;;;490680;242;27916;-73
2023/12/27 06:21:43;;;;;;;8.13;4.73;;;7.40;99.90;;;;;;486232;244;27869;-75
2023/12/27 06:23:44;;;;;;;4.90;4.10;;;7.30;99.90;;;;;;490634;240;27592;-72
2023/12/27 06:25:45;;;;;;;5.20;3.97;;;7.30;99.90;;;;;;490669;242;27836;-72
2023/12/27 06:27:48;;;;;;;5.23;4.10;;;7.30;99.90;;;;;;486212;244;27958;-72
2023/12/27 06:29:48;;;;;;;5.50;4.20;;;7.30;99.90;;;;;;490614;242;27971;-72
2023/12/27 06:31:49;;;;;;;5.13;4.60;;;7.30;99.90;;;;;;486279;242;27739;-74
2023/12/27 06:33:50;;;;;;;5.10;3.90;;;7.30;99.90;;;;;;490651;242;27569;-72
2023/12/27 06:35:52;;;;;;;3.90;3.33;;;7.30;99.90;;;;;;485595;242;28319;-73
2023/12/27 06:37:53;;;;;;;5.93;3.70;;;7.40;99.90;;;;;;492833;240;27874;-71
2023/12/27 06:39:54;;;;;;;6.00;3.53;;;7.30;99.90;;;;;;490375;242;28063;-72
2023/12/27 06:41:55;;;;;;;6.80;3.30;;;7.40;99.90;;;;;;492932;241;28380;-74
2023/12/27 06:43:57;;;;;;;5.40;3.90;;;7.40;99.90;;;;;;490371;242;28565;-72
2023/12/27 06:45:58;;;;;;;4.40;4.00;;;7.40;99.90;;;;;;492875;241;28836;-72
2023/12/27 06:47:59;;;;;;;7.07;4.33;;;7.30;99.90;;;;;;490454;242;27565;-72
2023/12/27 06:50:00;;;;;;;5.00;3.80;;;7.30;99.90;;;;;;492960;241;27890;-72
2023/12/27 06:52:02;;;;;;;4.77;3.50;;;7.30;99.90;;;;;;492927;240;29013;-73
2023/12/27 06:54:03;;;;;;;6.80;4.43;;;7.30;99.90;;;;;;490425;242;28912;-72
2023/12/27 06:56:04;;;;;;;5.37;3.95;;;7.30;99.90;;;;;;492914;241;28776;-73
2023/12/27 06:58:05;;;;;;;7.70;4.47;;;7.30;99.90;;;;;;492916;240;27777;-75
2023/12/27 07:00:07;;;;;;;4.40;3.87;;;7.30;99.90;;;;;;490481;242;27945;-72
2023/12/27 07:02:08;;;;;;;3.33;3.03;;;7.30;99.90;;;;;;492920;241;27797;-73
2023/12/27 07:04:09;;;;;;;6.57;3.70;;;7.30;99.90;;;;;;490280;242;29369;-71
2023/12/27 07:06:10;;;;;;;4.10;3.70;;;7.30;99.90;;;;;;492937;241;29359;-72
2023/12/27 07:08:12;;;;;;;6.63;4.20;;;7.30;99.90;;;;;;493013;240;29243;-75
2023/12/27 07:10:13;;;;;;;5.20;3.60;;;7.40;99.90;;;;;;490438;242;28487;-73
2023/12/27 07:12:14;;;;;;;9.03;3.80;;;7.30;99.90;;;;;;492949;241;28563;-73
2023/12/27 07:14:15;;;;;;;3.73;3.43;;;7.30;99.90;;;;;;490382;242;27594;-72
2023/12/27 07:16:17;;;;;;;4.50;3.20;;;7.30;99.90;;;;;;492953;241;28006;-72
2023/12/27 07:18:18;;;;;;;3.78;3.22;;;7.40;99.90;;;;;;490478;242;28083;-73
2023/12/27 07:20:19;;;;;;;6.33;3.60;;;7.30;99.90;;;;;;492968;241;27467;-72
2023/12/27 07:22:21;;;;;;;5.03;3.55;;;7.30;99.90;;;;;;490359;242;27875;-73
2023/12/27 07:24:22;;;;;;;4.20;3.80;;;7.30;99.90;;;;;;492728;241;27577;-71
2023/12/27 07:26:23;;;;;;;3.93;2.80;;;7.30;99.90;;;;;;490328;242;28882;-72
2023/12/27 07:28:24;;;;;;;4.10;3.40;;;7.30;99.90;;;;;;492707;241;27753;-72
2023/12/27 07:30:25;;;;;;;3.67;3.20;;;7.30;99.90;;;;;;490378;242;28044;-72
2023/12/27 07:32:27;;;;;;;6.10;3.80;;;7.30;99.90;;;;;;492886;241;28432;-73
2023/12/27 07:34:28;;;;;;;3.70;3.40;;;7.40;99.90;;;;;;490376;242;28723;-72
2023/12/27 07:36:29;;;;;;;3.83;3.47;;;7.40;99.90;;;;;;492769;241;28450;-72
2023/12/27 07:38:30;;;;;;;3.45;2.90;;;7.30;99.90;;;;;;490482;242;28515;-73
2023/12/27 07:40:32;;;;;;;3.70;3.40;;;7.30;99.90;;;;;;492950;241;27459;-72
2023/12/27 07:42:33;;;;;;;4.30;3.47;;;7.30;99.90;;;;;;482259;242;27856;-73
2023/12/27 07:44:34;;;;;;;5.40;4.07;;;7.30;99.90;;;;;;482900;245;28024;-74
2023/12/27 07:46:35;;;;;;;4.67;3.90;;;7.30;99.90;;;;;;474715;241;28063;-73
2023/12/27 07:48:37;;;;;;;4.80;4.20;;;7.30;99.90;;;;;;487654;242;27954;-73
2023/12/27 07:50:39;;;;;;;4.77;3.37;;;7.20;99.90;;;;;;477693;248;28741;-72
2023/12/27 07:52:39;;;;;;;4.80;3.20;;;7.20;99.90;;;;;;483948;241;27912;-72
2023/12/27 07:54:41;;;;;;;3.90;3.30;;;7.20;99.90;;;;;;473228;251;27669;-74
2023/12/27 07:56:42;;;;;;;4.60;3.70;;;7.30;99.90;;;;;;489356;236;27595;-72
2023/12/27 07:58:43;;;;;;;3.30;3.00;;;7.20;99.90;;;;;;486676;244;28564;-72
2023/12/27 08:00:44;;;;;;;4.13;3.43;;;7.30;99.90;;;;;;504048;236;27961;-72
2023/12/27 08:02:45;;;;;;;3.87;3.50;;;7.20;99.90;;;;;;472683;244;28234;-72
2023/12/27 08:04:47;;;;;;;3.87;3.47;;;7.20;99.90;;;;;;469435;253;28624;-74
2023/12/27 08:06:49;;;;;;;3.13;2.83;;;7.20;99.90;;;;;;469504;248;29208;-72
2023/12/27 08:08:49;;;;;;;4.40;4.00;;;7.30;99.90;;;;;;469382;253;28884;-73
2023/12/27 08:10:50;;;;;;;4.70;4.20;;;7.30;99.90;;;;;;469356;253;28501;-71
2023/12/27 08:12:52;;;;;;;5.20;4.57;;;7.30;99.90;;;;;;469472;248;28554;-71
2023/12/27 08:14:53;;;;;;;4.00;3.60;;;7.30;99.90;;;;;;469366;253;27459;-73
2023/12/27 08:16:55;;;;;;;4.17;3.77;;;7.30;99.90;;;;;;475172;244;27860;-72
2023/12/27 08:18:55;;;;;;;6.93;3.93;;;7.30;99.90;;;;;;504055;236;28071;-72
2023/12/27 08:20:57;;;;;;;10.63;6.40;;;7.30;99.90;;;;;;486740;244;28785;-76
2023/12/27 08:23:01;;;;;;;9.17;6.03;;;7.30;99.90;;;;;;503825;236;28056;-71
2023/12/27 08:24:59;;;;;;;143.35;80.65;;;7.30;99.90;;;;;;483435;246;27751;-72
2023/12/27 08:27:00;;;;;;;61.23;38.23;;;7.40;99.90;;;;;;504167;235;27361;-72
2023/12/27 08:29:02;;;;;;;36.67;24.70;;;7.40;99.90;;;;;;486790;244;28577;-72
2023/12/27 08:31:06;;;;;;;27.50;20.57;;;7.40;99.90;;;;;;504150;236;28344;-74
2023/12/27 08:33:07;;;;;;;19.37;14.33;;;7.50;99.90;;;;;;503955;236;27948;-73
2023/12/27 08:35:05;;;;;;;13.03;11.63;;;7.50;99.90;;;;;;503926;236;27792;-73
2023/12/27 08:37:07;;;;;;;4.90;4.50;;;7.50;99.90;;;;;;504104;236;28005;-72
2023/12/27 08:39:08;;;;;;;6.03;5.43;;;7.50;99.90;;;;;;481678;244;27847;-72
2023/12/27 08:41:09;;;;;;;6.77;6.07;;;7.50;99.90;;;;;;492993;241;27920;-74
2023/12/27 08:43:10;;;;;;;6.83;4.33;;;7.50;99.90;;;;;;482609;244;28446;-72
2023/12/27 08:45:12;;;;;;;6.47;5.87;;;7.50;99.90;;;;;;492992;240;27789;-72
2023/12/27 08:47:14;;;;;;;4.40;4.10;;;7.60;99.90;;;;;;482684;244;27891;-72
2023/12/27 08:49:14;;;;;;;5.90;4.87;;;7.60;99.90;;;;;;493806;240;28067;-72
2023/12/27 08:51:15;;;;;;;6.10;3.90;;;7.70;99.90;;;;;;477891;248;27684;-73
2023/12/27 08:53:17;;;;;;;4.33;3.40;;;7.70;99.90;;;;;;496646;236;28003;-73
2023/12/27 08:55:19;;;;;;;4.03;3.40;;;7.80;99.90;;;;;;486813;244;28472;-72
2023/12/27 08:57:19;;;;;;;4.40;2.93;;;7.80;99.90;;;;;;504150;236;28418;-75
2023/12/27 08:59:20;;;;;;;10.40;8.80;;;7.90;99.90;;;;;;480487;244;28582;-72
2023/12/27 09:01:22;;;;;;;9.40;7.00;;;8.00;99.90;;;;;;492931;241;28548;-73
2023/12/27 09:03:23;;;;;;;10.20;9.20;;;8.00;99.90;;;;;;490247;242;28550;-72
2023/12/27 09:05:24;;;;;;;15.33;12.00;;;8.00;99.90;;;;;;492997;241;27976;-72
2023/12/27 09:07:25;;;;;;;9.10;7.33;;;8.10;99.90;;;;;;492997;241;27981;-74
2023/12/27 09:09:27;;;;;;;5.10;4.60;;;8.20;99.90;;;;;;501189;236;27746;-72
2023/12/27 09:11:28;;;;;;;6.27;4.93;;;8.20;99.90;;;;;;486706;244;28133;-72
2023/12/27 09:13:29;;;;;;;6.87;4.70;;;8.30;99.90;;;;;;498678;236;27951;-71
2023/12/27 09:15:30;;;;;;;5.20;3.77;;;8.30;99.90;;;;;;473266;251;28014;-71
2023/12/27 09:17:32;;;;;;;7.23;4.17;;;8.30;99.90;;;;;;483204;245;27632;-73
2023/12/27 09:19:33;;;;;;;6.07;5.10;;;8.40;99.90;;;;;;480601;241;27921;-73
2023/12/27 09:21:34;;;;;;;6.00;5.10;;;8.50;99.90;;;;;;483011;244;27520;-73
2023/12/27 09:23:35;;;;;;;9.13;4.20;;;8.50;99.90;;;;;;480013;246;28539;-75
2023/12/27 09:25:37;;;;;;;4.60;3.30;;;8.50;99.90;;;;;;461633;254;27900;-72
2023/12/27 09:27:38;;;;;;;9.43;4.10;;;8.30;99.90;;;;;;473247;251;28135;-73
2023/12/27 09:29:39;;;;;;;8.70;3.70;;;8.20;99.90;;;;;;483117;245;28031;-72
2023/12/27 09:31:41;;;;;;;6.10;5.00;;;8.10;99.90;;;;;;483121;244;28476;-72
2023/12/27 09:33:42;;;;;;;9.90;5.73;;;8.10;99.90;;;;;;480190;246;28413;-75
2023/12/27 09:35:43;;;;;;;8.90;2.97;;;8.10;99.90;;;;;;461755;254;28217;-72
2023/12/27 09:37:44;;;;;;;4.57;3.10;;;8.20;99.90;;;;;;473201;251;28607;-72
2023/12/27 09:39:45;;;;;;;12.80;3.50;;;8.10;99.90;;;;;;484613;236;28417;-73
2023/12/27 09:41:47;;;;;;;5.03;3.63;;;8.10;99.90;;;;;;490138;240;27581;-72
2023/12/27 09:43:48;;;;;;;7.47;3.40;;;8.20;99.90;;;;;;492827;241;27636;-72
2023/12/27 09:45:49;;;;;;;6.33;3.40;;;8.30;99.90;;;;;;490441;242;27699;-70
2023/12/27 09:47:53;;;;;;;6.93;3.43;;;8.40;99.90;;;;;;492781;241;27860;-72
2023/12/27 09:49:54;;;;;;;5.10;3.20;;;8.40;99.90;;;;;;492370;240;27949;-69
2023/12/27 09:51:54;;;;;;;3.70;2.80;;;8.50;99.90;;;;;;490276;242;28033;-70
2023/12/27 09:53:54;;;;;;;10.87;6.63;;;8.50;99.90;;;;;;492777;241;27780;-71
2023/12/27 09:55:56;;;;;;;8.53;4.73;;;8.50;99.90;;;;;;490351;242;27998;-70
2023/12/27 09:57:57;;;;;;;5.70;4.13;;;8.50;99.90;;;;;;492889;241;27968;-71
2023/12/27 09:59:58;;;;;;;5.27;3.90;;;8.30;99.90;;;;;;490439;242;28323;-73
2023/12/27 10:02:02;;;;;;;6.33;3.83;;;8.20;99.90;;;;;;492894;241;27490;-72
2023/12/27 10:04:03;;;;;;;7.60;3.90;;;8.20;99.90;;;;;;492823;240;27853;-73
2023/12/27 10:06:06;;;;;;;7.00;4.00;;;8.20;99.90;;;;;;490322;242;27737;-71
2023/12/27 10:08:06;;;;;;;7.77;5.20;;;8.20;99.90;;;;;;492820;241;28203;-74
2023/12/27 10:10:07;;;;;;;9.07;8.07;;;8.30;99.90;;;;;;490274;242;27951;-71
2023/12/27 10:12:09;;;;;;;7.53;6.40;;;8.20;99.90;;;;;;492869;241;28236;-72
2023/12/27 10:14:10;;;;;;;10.87;6.27;;;8.20;99.90;;;;;;490224;242;27647;-72
2023/12/27 10:16:11;;;;;;;9.70;5.70;;;8.20;99.90;;;;;;492828;241;27883;-72
2023/12/27 10:18:12;;;;;;;8.70;6.40;;;8.30;99.90;;;;;;480548;240;28103;-73
2023/12/27 10:20:14;;;;;;;8.33;5.27;;;8.30;99.90;;;;;;474297;247;28058;-70
2023/12/27 10:22:15;;;;;;;5.40;4.07;;;8.30;99.90;;;;;;473618;251;28056;-70
2023/12/27 10:24:16;;;;;;;6.87;3.80;;;8.30;99.90;;;;;;473604;251;29475;-72
2023/12/27 10:26:19;;;;;;;6.17;4.10;;;8.30;99.90;;;;;;473817;251;28390;-72
2023/12/27 10:28:19;;;;;;;6.27;4.07;;;8.30;99.90;;;;;;473646;251;28296;-70
2023/12/27 10:30:20;;;;;;;9.37;4.33;;;8.30;99.90;;;;;;473763;251;28261;-70
2023/12/27 10:32:21;;;;;;;7.23;4.13;;;8.30;99.90;;;;;;473860;251;28543;-70
2023/12/27 10:34:22;;;;;;;7.93;4.27;;;8.40;99.90;;;;;;473898;251;28022;-70
2023/12/27 10:36:25;;;;;;;4.53;3.80;;;8.40;99.90;;;;;;473928;251;27902;-70
2023/12/27 10:38:25;;;;;;;6.50;4.03;;;8.50;99.90;;;;;;473781;251;27605;-70